sensor_id;sensor_type;location;lat;lon;timestamp;pressure;altitude;pressure_sealevel;temperature;humidity
47983;BME280;33751;50.816;-1.214;2023-03-20T00:00:18;101850.66;;;23.72;100.00
47983;BME280;33751;50.816;-1.214;2023-03-20T00:02:46;101846.16;;;23.73;100.00
47983;BME280;33751;50.816;-1.214;2023-03-20T00:05:18;101848.52;;;23.88;100.00
47983;BME280;33751;50.816;-1.214;2023-03-20T00:07:45;101852.61;;;23.64;100.00
47983;BME280;33751;50.816;-1.214;2023-03-20T00:10:12;101853.77;;;23.61;100.00
47983;BME280;33751;50.816;-1.214;2023-03-20T00:12:40;101856.76;;;23.54;100.00
47983;BME280;33751;50.816;-1.214;2023-03-20T00:15:31;101853.13;;;23.75;100.00
47983;BME280;33751;50.816;-1.214;2023-03-20T00:18:00;101846.47;;;23.52;100.00
47983;BME280;33751;50.816;-1.214;2023-03-20T00:20:27;101843.69;;;23.72;100.00
47983;BME280;33751;50.816;-1.214;2023-03-20T00:22:54;101844.46;;;23.95;100.00
47983;BME280;33751;50.816;-1.214;2023-03-20T00:25:23;101844.35;;;23.45;100.00
47983;BME280;33751;50.816;-1.214;2023-03-20T00:27:51;101852.50;;;23.69;100.00
47983;BME280;33751;50.816;-1.214;2023-03-20T00:30:25;101851.62;;;23.45;100.00
47983;BME280;33751;50.816;-1.214;2023-03-20T00:32:52;101847.30;;;23.90;100.00
47983;BME280;33751;50.816;-1.214;2023-03-20T00:35:23;101846.59;;;23.59;100.00
47983;BME280;33751;50.816;-1.214;2023-03-20T00:37:51;101838.62;;;23.37;100.00
47983;BME280;33751;50.816;-1.214;2023-03-20T00:40:18;101838.73;;;23.77;100.00
47983;BME280;33751;50.816;-1.214;2023-03-20T00:42:49;101839.69;;;23.36;100.00
47983;BME280;33751;50.816;-1.214;2023-03-20T00:45:18;101841.40;;;23.31;100.00
47983;BME280;33751;50.816;-1.214;2023-03-20T00:47:48;101836.43;;;23.34;100.00
47983;BME280;33751;50.816;-1.214;2023-03-20T00:50:18;101837.58;;;23.51;100.00
47983;BME280;33751;50.816;-1.214;2023-03-20T00:52:47;101843.42;;;23.73;100.00
47983;BME280;33751;50.816;-1.214;2023-03-20T00:55:15;101841.57;;;23.23;100.00
47983;BME280;33751;50.816;-1.214;2023-03-20T00:57:44;101839.89;;;23.21;100.00
47983;BME280;33751;50.816;-1.214;2023-03-20T01:00:22;101844.06;;;23.24;100.00
47983;BME280;33751;50.816;-1.214;2023-03-20T01:02:51;101845.15;;;23.26;100.00
47983;BME280;33751;50.816;-1.214;2023-03-20T01:05:19;101848.97;;;23.22;100.00
47983;BME280;33751;50.816;-1.214;2023-03-20T01:07:46;101847.00;;;23.21;100.00
47983;BME280;33751;50.816;-1.214;2023-03-20T01:10:13;101847.86;;;23.41;100.00
47983;BME280;33751;50.816;-1.214;2023-03-20T01:12:41;101847.81;;;23.43;100.00
47983;BME280;33751;50.816;-1.214;2023-03-20T01:15:17;101847.64;;;23.19;100.00
47983;BME280;33751;50.816;-1.214;2023-03-20T01:17:45;101844.07;;;23.18;100.00
47983;BME280;33751;50.816;-1.214;2023-03-20T01:20:16;101841.56;;;23.54;100.00
47983;BME280;33751;50.816;-1.214;2023-03-20T01:22:43;101839.72;;;23.11;100.00
47983;BME280;33751;50.816;-1.214;2023-03-20T01:25:10;101837.86;;;23.58;100.00
47983;BME280;33751;50.816;-1.214;2023-03-20T01:27:37;101838.35;;;23.11;100.00
47983;BME280;33751;50.816;-1.214;2023-03-20T01:30:16;101838.00;;;23.55;100.00
47983;BME280;33751;50.816;-1.214;2023-03-20T01:32:43;101838.87;;;23.56;100.00
47983;BME280;33751;50.816;-1.214;2023-03-20T01:35:12;101838.00;;;23.35;100.00
47983;BME280;33751;50.816;-1.214;2023-03-20T01:37:39;101835.96;;;23.53;100.00
47983;BME280;33751;50.816;-1.214;2023-03-20T01:40:13;101834.49;;;23.04;100.00
47983;BME280;33751;50.816;-1.214;2023-03-20T01:42:42;101832.86;;;23.04;100.00
47983;BME280;33751;50.816;-1.214;2023-03-20T01:45:15;101832.53;;;23.43;100.00
47983;BME280;33751;50.816;-1.214;2023-03-20T01:47:42;101828.13;;;23.03;100.00
47983;BME280;33751;50.816;-1.214;2023-03-20T01:50:28;101825.15;;;22.98;100.00
47983;BME280;33751;50.816;-1.214;2023-03-20T01:53:01;101826.98;;;23.42;100.00
47983;BME280;33751;50.816;-1.214;2023-03-20T01:55:30;101825.12;;;23.39;100.00
47983;BME280;33751;50.816;-1.214;2023-03-20T01:58:00;101817.65;;;23.39;100.00
47983;BME280;33751;50.816;-1.214;2023-03-20T02:00:29;101813.08;;;23.37;100.00
47983;BME280;33751;50.816;-1.214;2023-03-20T02:02:56;101812.01;;;23.12;100.00
47983;BME280;33751;50.816;-1.214;2023-03-20T02:05:24;101807.19;;;23.04;100.00
47983;BME280;33751;50.816;-1.214;2023-03-20T02:08:07;101803.62;;;23.26;100.00
47983;BME280;33751;50.816;-1.214;2023-03-20T02:10:37;101804.76;;;23.05;100.00
47983;BME280;33751;50.816;-1.214;2023-03-20T02:13:04;101803.83;;;23.21;100.00
47983;BME280;33751;50.816;-1.214;2023-03-20T02:15:31;101801.37;;;23.19;100.00
47983;BME280;33751;50.816;-1.214;2023-03-20T02:17:59;101795.12;;;23.19;100.00
47983;BME280;33751;50.816;-1.214;2023-03-20T02:20:36;101791.42;;;23.17;100.00
47983;BME280;33751;50.816;-1.214;2023-03-20T02:23:46;101791.24;;;23.19;100.00
47983;BME280;33751;50.816;-1.214;2023-03-20T02:26:25;101788.79;;;23.21;100.00
47983;BME280;33751;50.816;-1.214;2023-03-20T02:29:46;101787.55;;;23.72;100.00
47983;BME280;33751;50.816;-1.214;2023-03-20T02:33:41;101785.16;;;23.68;100.00
47983;BME280;33751;50.816;-1.214;2023-03-20T02:36:25;101782.07;;;23.18;100.00
47983;BME280;33751;50.816;-1.214;2023-03-20T02:39:55;101782.91;;;23.43;100.00
47983;BME280;33751;50.816;-1.214;2023-03-20T02:42:29;101782.45;;;23.17;100.00
47983;BME280;33751;50.816;-1.214;2023-03-20T02:45:06;101781.48;;;23.20;100.00
47983;BME280;33751;50.816;-1.214;2023-03-20T02:47:39;101782.24;;;22.94;100.00
47983;BME280;33751;50.816;-1.214;2023-03-20T02:50:13;101780.72;;;23.12;100.00
47983;BME280;33751;50.816;-1.214;2023-03-20T02:52:48;101782.13;;;23.12;100.00
47983;BME280;33751;50.816;-1.214;2023-03-20T02:55:19;101781.82;;;23.10;100.00
47983;BME280;33751;50.816;-1.214;2023-03-20T02:57:56;101779.37;;;23.07;100.00
47983;BME280;33751;50.816;-1.214;2023-03-20T03:00:28;101774.39;;;23.07;100.00
47983;BME280;33751;50.816;-1.214;2023-03-20T03:03:04;101771.92;;;23.01;100.00
47983;BME280;33751;50.816;-1.214;2023-03-20T03:05:36;101768.78;;;22.97;100.00
47983;BME280;33751;50.816;-1.214;2023-03-20T03:08:05;101767.13;;;22.78;100.00
47983;BME280;33751;50.816;-1.214;2023-03-20T03:10:37;101762.64;;;23.04;100.00
47983;BME280;33751;50.816;-1.214;2023-03-20T03:13:08;101759.67;;;23.06;100.00
47983;BME280;33751;50.816;-1.214;2023-03-20T03:15:40;101763.81;;;22.87;100.00
47983;BME280;33751;50.816;-1.214;2023-03-20T03:18:12;101764.07;;;22.86;100.00
47983;BME280;33751;50.816;-1.214;2023-03-20T03:20:42;101760.79;;;23.06;100.00
47983;BME280;33751;50.816;-1.214;2023-03-20T03:23:19;101760.86;;;23.04;100.00
47983;BME280;33751;50.816;-1.214;2023-03-20T03:25:47;101754.59;;;23.04;100.00
47983;BME280;33751;50.816;-1.214;2023-03-20T03:28:22;101752.68;;;22.85;100.00
47983;BME280;33751;50.816;-1.214;2023-03-20T03:30:53;101752.05;;;22.77;100.00
47983;BME280;33751;50.816;-1.214;2023-03-20T03:33:23;101755.70;;;22.99;100.00
47983;BME280;33751;50.816;-1.214;2023-03-20T03:36:03;101754.43;;;22.98;100.00
47983;BME280;33751;50.816;-1.214;2023-03-20T03:38:39;101749.61;;;22.95;100.00
47983;BME280;33751;50.816;-1.214;2023-03-20T03:41:18;101744.89;;;22.72;100.00
47983;BME280;33751;50.816;-1.214;2023-03-20T03:43:51;101742.26;;;22.95;100.00
47983;BME280;33751;50.816;-1.214;2023-03-20T03:46:24;101737.37;;;22.93;100.00
47983;BME280;33751;50.816;-1.214;2023-03-20T03:48:56;101733.52;;;23.23;100.00
47983;BME280;33751;50.816;-1.214;2023-03-20T03:51:26;101732.31;;;22.88;100.00
47983;BME280;33751;50.816;-1.214;2023-03-20T03:53:57;101732.51;;;22.58;100.00
47983;BME280;33751;50.816;-1.214;2023-03-20T03:56:28;101730.92;;;22.63;100.00
47983;BME280;33751;50.816;-1.214;2023-03-20T03:58:59;101729.89;;;22.85;100.00
47983;BME280;33751;50.816;-1.214;2023-03-20T04:01:27;101727.25;;;22.87;100.00
47983;BME280;33751;50.816;-1.214;2023-03-20T04:03:58;101728.69;;;23.37;100.00
47983;BME280;33751;50.816;-1.214;2023-03-20T04:06:26;101727.42;;;22.92;100.00
47983;BME280;33751;50.816;-1.214;2023-03-20T04:08:54;101728.50;;;22.91;100.00
47983;BME280;33751;50.816;-1.214;2023-03-20T04:11:22;101728.24;;;22.85;100.00
47983;BME280;33751;50.816;-1.214;2023-03-20T04:13:51;101722.60;;;22.85;100.00
47983;BME280;33751;50.816;-1.214;2023-03-20T04:16:20;101723.65;;;23.12;100.00
47983;BME280;33751;50.816;-1.214;2023-03-20T04:18:47;101723.88;;;22.85;100.00
47983;BME280;33751;50.816;-1.214;2023-03-20T04:21:15;101725.22;;;22.88;100.00
47983;BME280;33751;50.816;-1.214;2023-03-20T04:23:43;101725.41;;;22.83;100.00
47983;BME280;33751;50.816;-1.214;2023-03-20T04:26:10;101724.24;;;22.84;100.00
47983;BME280;33751;50.816;-1.214;2023-03-20T04:28:37;101721.67;;;22.57;100.00
47983;BME280;33751;50.816;-1.214;2023-03-20T04:31:04;101721.84;;;22.58;100.00
47983;BME280;33751;50.816;-1.214;2023-03-20T04:33:31;101720.26;;;22.84;100.00
47983;BME280;33751;50.816;-1.214;2023-03-20T04:35:59;101719.10;;;22.84;100.00
47983;BME280;33751;50.816;-1.214;2023-03-20T04:38:25;101718.31;;;22.78;100.00
47983;BME280;33751;50.816;-1.214;2023-03-20T04:40:52;101714.99;;;22.81;100.00
47983;BME280;33751;50.816;-1.214;2023-03-20T04:43:19;101716.57;;;23.22;100.00
47983;BME280;33751;50.816;-1.214;2023-03-20T04:45:46;101718.39;;;22.76;100.00
47983;BME280;33751;50.816;-1.214;2023-03-20T04:48:13;101718.70;;;22.76;100.00
47983;BME280;33751;50.816;-1.214;2023-03-20T04:50:39;101719.42;;;22.75;100.00
47983;BME280;33751;50.816;-1.214;2023-03-20T04:53:06;101720.22;;;22.74;100.00
47983;BME280;33751;50.816;-1.214;2023-03-20T04:55:32;101718.49;;;23.01;100.00
47983;BME280;33751;50.816;-1.214;2023-03-20T04:57:59;101716.68;;;22.74;100.00
47983;BME280;33751;50.816;-1.214;2023-03-20T05:00:27;101716.25;;;22.75;100.00
47983;BME280;33751;50.816;-1.214;2023-03-20T05:02:53;101711.32;;;22.54;100.00
47983;BME280;33751;50.816;-1.214;2023-03-20T05:05:20;101710.54;;;22.72;100.00
47983;BME280;33751;50.816;-1.214;2023-03-20T05:07:47;101708.97;;;22.49;100.00
47983;BME280;33751;50.816;-1.214;2023-03-20T05:10:14;101707.27;;;22.66;100.00
47983;BME280;33751;50.816;-1.214;2023-03-20T05:12:42;101706.76;;;22.66;100.00
47983;BME280;33751;50.816;-1.214;2023-03-20T05:15:09;101702.70;;;22.35;100.00
47983;BME280;33751;50.816;-1.214;2023-03-20T05:17:35;101699.55;;;22.59;100.00
47983;BME280;33751;50.816;-1.214;2023-03-20T05:20:03;101702.40;;;22.36;100.00
47983;BME280;33751;50.816;-1.214;2023-03-20T05:22:29;101702.97;;;22.59;100.00
47983;BME280;33751;50.816;-1.214;2023-03-20T05:24:56;101702.29;;;22.83;100.00
47983;BME280;33751;50.816;-1.214;2023-03-20T05:27:22;101695.99;;;22.53;100.00
47983;BME280;33751;50.816;-1.214;2023-03-20T05:29:49;101695.39;;;22.49;100.00
47983;BME280;33751;50.816;-1.214;2023-03-20T05:32:15;101690.46;;;22.52;100.00
47983;BME280;33751;50.816;-1.214;2023-03-20T05:34:41;101688.41;;;22.74;100.00
47983;BME280;33751;50.816;-1.214;2023-03-20T05:37:08;101681.93;;;22.51;100.00
47983;BME280;33751;50.816;-1.214;2023-03-20T05:39:35;101682.93;;;22.75;100.00
47983;BME280;33751;50.816;-1.214;2023-03-20T05:42:02;101677.12;;;22.44;100.00
47983;BME280;33751;50.816;-1.214;2023-03-20T05:44:29;101677.38;;;22.73;100.00
47983;BME280;33751;50.816;-1.214;2023-03-20T05:46:56;101681.15;;;22.74;100.00
47983;BME280;33751;50.816;-1.214;2023-03-20T05:49:23;101679.51;;;22.78;100.00
47983;BME280;33751;50.816;-1.214;2023-03-20T05:51:49;101674.64;;;22.50;100.00
47983;BME280;33751;50.816;-1.214;2023-03-20T05:54:16;101677.45;;;22.75;100.00
47983;BME280;33751;50.816;-1.214;2023-03-20T05:56:42;101676.79;;;22.48;100.00
47983;BME280;33751;50.816;-1.214;2023-03-20T05:59:09;101677.00;;;22.66;100.00
47983;BME280;33751;50.816;-1.214;2023-03-20T06:01:36;101677.24;;;22.41;100.00
47983;BME280;33751;50.816;-1.214;2023-03-20T06:04:03;101677.62;;;22.65;100.00
47983;BME280;33751;50.816;-1.214;2023-03-20T06:06:30;101683.09;;;22.40;100.00
47983;BME280;33751;50.816;-1.214;2023-03-20T06:08:57;101688.58;;;22.71;100.00
47983;BME280;33751;50.816;-1.214;2023-03-20T06:11:23;101685.02;;;22.39;100.00
47983;BME280;33751;50.816;-1.214;2023-03-20T06:13:50;101682.99;;;22.85;100.00
47983;BME280;33751;50.816;-1.214;2023-03-20T06:16:16;101677.95;;;22.34;100.00
47983;BME280;33751;50.816;-1.214;2023-03-20T06:18:43;101677.34;;;22.76;100.00
47983;BME280;33751;50.816;-1.214;2023-03-20T06:21:09;101674.50;;;22.65;100.00
47983;BME280;33751;50.816;-1.214;2023-03-20T06:23:36;101673.45;;;22.36;100.00
47983;BME280;33751;50.816;-1.214;2023-03-20T06:26:03;101677.55;;;22.40;100.00
47983;BME280;33751;50.816;-1.214;2023-03-20T06:28:30;101670.81;;;22.61;100.00
47983;BME280;33751;50.816;-1.214;2023-03-20T06:30:57;101672.56;;;22.31;100.00
47983;BME280;33751;50.816;-1.214;2023-03-20T06:33:24;101671.31;;;22.84;100.00
47983;BME280;33751;50.816;-1.214;2023-03-20T06:35:51;101672.95;;;22.33;100.00
47983;BME280;33751;50.816;-1.214;2023-03-20T06:38:18;101680.71;;;22.35;100.00
47983;BME280;33751;50.816;-1.214;2023-03-20T06:40:44;101685.02;;;22.38;100.00
47983;BME280;33751;50.816;-1.214;2023-03-20T06:43:12;101684.20;;;22.48;100.00
47983;BME280;33751;50.816;-1.214;2023-03-20T06:45:38;101685.76;;;22.50;100.00
47983;BME280;33751;50.816;-1.214;2023-03-20T06:48:05;101688.78;;;22.60;100.00
47983;BME280;33751;50.816;-1.214;2023-03-20T06:50:32;101689.92;;;22.56;100.00
47983;BME280;33751;50.816;-1.214;2023-03-20T06:52:59;101685.75;;;22.68;100.00
47983;BME280;33751;50.816;-1.214;2023-03-20T06:55:26;101685.50;;;22.83;100.00
47983;BME280;33751;50.816;-1.214;2023-03-20T06:57:53;101687.73;;;23.20;100.00
47983;BME280;33751;50.816;-1.214;2023-03-20T07:00:20;101687.95;;;23.04;100.00
47983;BME280;33751;50.816;-1.214;2023-03-20T07:02:47;101682.34;;;22.94;100.00
47983;BME280;33751;50.816;-1.214;2023-03-20T07:05:13;101680.44;;;23.17;100.00
47983;BME280;33751;50.816;-1.214;2023-03-20T07:07:40;101685.08;;;23.01;100.00
47983;BME280;33751;50.816;-1.214;2023-03-20T07:10:08;101689.34;;;23.28;100.00
47983;BME280;33751;50.816;-1.214;2023-03-20T07:12:36;101690.27;;;23.13;100.00
47983;BME280;33751;50.816;-1.214;2023-03-20T07:15:03;101697.18;;;23.38;100.00
47983;BME280;33751;50.816;-1.214;2023-03-20T07:17:30;101699.20;;;23.67;100.00
47983;BME280;33751;50.816;-1.214;2023-03-20T07:19:57;101696.07;;;23.24;100.00
47983;BME280;33751;50.816;-1.214;2023-03-20T07:22:26;101696.23;;;23.21;100.00
47983;BME280;33751;50.816;-1.214;2023-03-20T07:24:53;101694.01;;;23.71;100.00
47983;BME280;33751;50.816;-1.214;2023-03-20T07:27:20;101694.74;;;23.72;100.00
47983;BME280;33751;50.816;-1.214;2023-03-20T07:29:47;101690.66;;;23.69;100.00
47983;BME280;33751;50.816;-1.214;2023-03-20T07:32:14;101695.76;;;23.52;100.00
47983;BME280;33751;50.816;-1.214;2023-03-20T07:34:41;101694.84;;;23.81;100.00
47983;BME280;33751;50.816;-1.214;2023-03-20T07:37:07;101692.94;;;23.61;100.00
47983;BME280;33751;50.816;-1.214;2023-03-20T07:39:34;101693.43;;;23.49;100.00
47983;BME280;33751;50.816;-1.214;2023-03-20T07:42:00;101699.04;;;23.46;100.00
47983;BME280;33751;50.816;-1.214;2023-03-20T07:44:27;101698.76;;;23.89;100.00
47983;BME280;33751;50.816;-1.214;2023-03-20T07:46:54;101698.75;;;23.69;100.00
47983;BME280;33751;50.816;-1.214;2023-03-20T07:49:20;101692.18;;;23.83;100.00
47983;BME280;33751;50.816;-1.214;2023-03-20T07:51:50;101689.45;;;23.94;100.00
47983;BME280;33751;50.816;-1.214;2023-03-20T07:54:17;101688.80;;;24.00;100.00
47983;BME280;33751;50.816;-1.214;2023-03-20T07:56:43;101688.60;;;23.85;100.00
47983;BME280;33751;50.816;-1.214;2023-03-20T07:59:11;101685.01;;;24.10;100.00
47983;BME280;33751;50.816;-1.214;2023-03-20T08:01:38;101680.92;;;24.20;100.00
47983;BME280;33751;50.816;-1.214;2023-03-20T08:04:05;101683.34;;;24.34;100.00
47983;BME280;33751;50.816;-1.214;2023-03-20T08:06:32;101683.46;;;24.40;100.00
47983;BME280;33751;50.816;-1.214;2023-03-20T08:08:59;101690.90;;;24.52;100.00
47983;BME280;33751;50.816;-1.214;2023-03-20T08:11:26;101689.55;;;24.57;100.00
47983;BME280;33751;50.816;-1.214;2023-03-20T08:13:53;101688.77;;;24.26;100.00
47983;BME280;33751;50.816;-1.214;2023-03-20T08:16:19;101693.73;;;24.20;100.00
47983;BME280;33751;50.816;-1.214;2023-03-20T08:18:46;101696.03;;;24.06;100.00
47983;BME280;33751;50.816;-1.214;2023-03-20T08:21:13;101699.69;;;24.61;100.00
47983;BME280;33751;50.816;-1.214;2023-03-20T08:23:40;101701.21;;;24.60;100.00
47983;BME280;33751;50.816;-1.214;2023-03-20T08:26:07;101704.79;;;24.67;100.00
47983;BME280;33751;50.816;-1.214;2023-03-20T08:28:33;101708.94;;;24.60;100.00
47983;BME280;33751;50.816;-1.214;2023-03-20T08:31:01;101712.42;;;24.44;100.00
47983;BME280;33751;50.816;-1.214;2023-03-20T08:33:28;101714.43;;;24.34;100.00
47983;BME280;33751;50.816;-1.214;2023-03-20T08:35:55;101713.95;;;24.27;100.00
47983;BME280;33751;50.816;-1.214;2023-03-20T08:38:22;101705.81;;;24.25;100.00
47983;BME280;33751;50.816;-1.214;2023-03-20T08:40:49;101704.73;;;24.41;100.00
47983;BME280;33751;50.816;-1.214;2023-03-20T08:43:16;101704.14;;;24.14;100.00
47983;BME280;33751;50.816;-1.214;2023-03-20T08:45:43;101707.74;;;24.14;100.00
47983;BME280;33751;50.816;-1.214;2023-03-20T08:48:10;101702.61;;;24.08;100.00
47983;BME280;33751;50.816;-1.214;2023-03-20T08:50:37;101709.58;;;24.08;100.00
47983;BME280;33751;50.816;-1.214;2023-03-20T08:53:05;101707.76;;;24.02;100.00
47983;BME280;33751;50.816;-1.214;2023-03-20T08:55:32;101712.47;;;24.03;100.00
47983;BME280;33751;50.816;-1.214;2023-03-20T08:57:59;101712.92;;;24.02;100.00
47983;BME280;33751;50.816;-1.214;2023-03-20T09:00:26;101709.70;;;24.05;100.00
47983;BME280;33751;50.816;-1.214;2023-03-20T09:02:54;101705.26;;;23.78;100.00
47983;BME280;33751;50.816;-1.214;2023-03-20T09:05:21;101711.32;;;24.02;100.00
47983;BME280;33751;50.816;-1.214;2023-03-20T09:07:48;101712.11;;;23.97;100.00
47983;BME280;33751;50.816;-1.214;2023-03-20T09:10:15;101717.45;;;23.98;100.00
47983;BME280;33751;50.816;-1.214;2023-03-20T09:12:42;101721.37;;;23.90;100.00
47983;BME280;33751;50.816;-1.214;2023-03-20T09:15:10;101721.30;;;23.81;100.00
47983;BME280;33751;50.816;-1.214;2023-03-20T09:17:36;101726.01;;;23.86;100.00
47983;BME280;33751;50.816;-1.214;2023-03-20T09:20:04;101721.73;;;23.67;100.00
47983;BME280;33751;50.816;-1.214;2023-03-20T09:22:31;101719.38;;;23.96;100.00
47983;BME280;33751;50.816;-1.214;2023-03-20T09:24:58;101715.17;;;23.75;100.00
47983;BME280;33751;50.816;-1.214;2023-03-20T09:27:25;101714.19;;;23.84;100.00
47983;BME280;33751;50.816;-1.214;2023-03-20T09:29:52;101715.86;;;23.74;100.00
47983;BME280;33751;50.816;-1.214;2023-03-20T09:32:18;101722.24;;;23.62;100.00
47983;BME280;33751;50.816;-1.214;2023-03-20T09:34:45;101723.15;;;23.63;100.00
47983;BME280;33751;50.816;-1.214;2023-03-20T09:37:11;101725.97;;;23.59;100.00
47983;BME280;33751;50.816;-1.214;2023-03-20T09:39:38;101723.17;;;23.50;100.00
47983;BME280;33751;50.816;-1.214;2023-03-20T09:42:14;101722.49;;;23.71;100.00
47983;BME280;33751;50.816;-1.214;2023-03-20T09:44:52;101724.29;;;23.66;100.00
47983;BME280;33751;50.816;-1.214;2023-03-20T09:47:30;101721.84;;;23.79;100.00
47983;BME280;33751;50.816;-1.214;2023-03-20T09:50:10;101722.69;;;23.56;100.00
47983;BME280;33751;50.816;-1.214;2023-03-20T09:52:42;101720.12;;;23.35;100.00
47983;BME280;33751;50.816;-1.214;2023-03-20T09:55:14;101720.80;;;23.59;100.00
47983;BME280;33751;50.816;-1.214;2023-03-20T09:57:44;101721.05;;;23.64;100.00
47983;BME280;33751;50.816;-1.214;2023-03-20T10:00:17;101722.33;;;23.67;100.00
47983;BME280;33751;50.816;-1.214;2023-03-20T10:02:49;101726.96;;;23.68;100.00
47983;BME280;33751;50.816;-1.214;2023-03-20T10:05:22;101732.32;;;23.69;100.00
47983;BME280;33751;50.816;-1.214;2023-03-20T10:07:52;101736.42;;;23.18;100.00
47983;BME280;33751;50.816;-1.214;2023-03-20T10:10:26;101736.61;;;23.88;100.00
47983;BME280;33751;50.816;-1.214;2023-03-20T10:13:07;101735.67;;;23.53;100.00
47983;BME280;33751;50.816;-1.214;2023-03-20T10:15:45;101736.39;;;23.45;100.00
47983;BME280;33751;50.816;-1.214;2023-03-20T10:18:19;101740.78;;;23.48;100.00
47983;BME280;33751;50.816;-1.214;2023-03-20T10:20:54;101741.71;;;23.57;100.00
47983;BME280;33751;50.816;-1.214;2023-03-20T10:23:27;101739.95;;;23.66;100.00
47983;BME280;33751;50.816;-1.214;2023-03-20T10:26:00;101737.66;;;23.79;100.00
47983;BME280;33751;50.816;-1.214;2023-03-20T10:28:32;101735.01;;;24.05;100.00
47983;BME280;33751;50.816;-1.214;2023-03-20T10:31:12;101735.54;;;23.89;100.00
47983;BME280;33751;50.816;-1.214;2023-03-20T10:33:53;101737.11;;;23.87;100.00
47983;BME280;33751;50.816;-1.214;2023-03-20T10:36:37;101739.23;;;23.57;100.00
47983;BME280;33751;50.816;-1.214;2023-03-20T10:39:13;101739.29;;;23.88;100.00
47983;BME280;33751;50.816;-1.214;2023-03-20T10:41:49;101741.04;;;24.08;100.00
47983;BME280;33751;50.816;-1.214;2023-03-20T10:44:24;101739.06;;;23.88;100.00
47983;BME280;33751;50.816;-1.214;2023-03-20T10:46:54;101739.78;;;23.94;100.00
47983;BME280;33751;50.816;-1.214;2023-03-20T10:49:30;101742.24;;;23.85;100.00
47983;BME280;33751;50.816;-1.214;2023-03-20T10:52:03;101739.15;;;23.80;100.00
47983;BME280;33751;50.816;-1.214;2023-03-20T10:54:33;101736.85;;;23.85;100.00
47983;BME280;33751;50.816;-1.214;2023-03-20T10:57:03;101740.01;;;23.62;100.00
47983;BME280;33751;50.816;-1.214;2023-03-20T10:59:33;101736.44;;;23.89;100.00
47983;BME280;33751;50.816;-1.214;2023-03-20T11:02:09;101731.95;;;24.12;100.00
47983;BME280;33751;50.816;-1.214;2023-03-20T11:04:36;101727.82;;;23.98;100.00
47983;BME280;33751;50.816;-1.214;2023-03-20T11:07:13;101722.24;;;24.05;100.00
47983;BME280;33751;50.816;-1.214;2023-03-20T11:09:42;101719.78;;;24.04;100.00
47983;BME280;33751;50.816;-1.214;2023-03-20T11:12:15;101718.11;;;24.06;100.00
47983;BME280;33751;50.816;-1.214;2023-03-20T11:14:42;101716.27;;;24.05;100.00
47983;BME280;33751;50.816;-1.214;2023-03-20T11:17:10;101717.27;;;24.22;100.00
47983;BME280;33751;50.816;-1.214;2023-03-20T11:19:39;101716.61;;;24.05;100.00
47983;BME280;33751;50.816;-1.214;2023-03-20T11:22:08;101719.97;;;24.06;100.00
47983;BME280;33751;50.816;-1.214;2023-03-20T11:24:49;101717.24;;;24.02;100.00
47983;BME280;33751;50.816;-1.214;2023-03-20T11:27:19;101720.27;;;24.02;100.00
47983;BME280;33751;50.816;-1.214;2023-03-20T11:29:50;101717.49;;;23.72;100.00
47983;BME280;33751;50.816;-1.214;2023-03-20T11:32:26;101723.81;;;23.90;100.00
47983;BME280;33751;50.816;-1.214;2023-03-20T11:34:53;101721.76;;;23.90;100.00
47983;BME280;33751;50.816;-1.214;2023-03-20T11:37:23;101716.09;;;23.67;100.00
47983;BME280;33751;50.816;-1.214;2023-03-20T11:39:56;101711.46;;;23.95;100.00
47983;BME280;33751;50.816;-1.214;2023-03-20T11:42:25;101707.89;;;23.63;100.00
47983;BME280;33751;50.816;-1.214;2023-03-20T11:44:59;101710.74;;;23.66;100.00
47983;BME280;33751;50.816;-1.214;2023-03-20T11:47:30;101716.22;;;23.89;100.00
47983;BME280;33751;50.816;-1.214;2023-03-20T11:49:59;101716.17;;;23.85;100.00
47983;BME280;33751;50.816;-1.214;2023-03-20T11:52:31;101713.83;;;23.92;100.00
47983;BME280;33751;50.816;-1.214;2023-03-20T11:55:00;101717.47;;;23.87;100.00
47983;BME280;33751;50.816;-1.214;2023-03-20T11:57:32;101716.37;;;23.89;100.00
47983;BME280;33751;50.816;-1.214;2023-03-20T12:00:03;101716.55;;;23.89;100.00
47983;BME280;33751;50.816;-1.214;2023-03-20T12:02:30;101715.64;;;23.82;100.00
47983;BME280;33751;50.816;-1.214;2023-03-20T12:04:59;101719.79;;;23.75;100.00
47983;BME280;33751;50.816;-1.214;2023-03-20T12:07:29;101719.83;;;23.70;100.00
47983;BME280;33751;50.816;-1.214;2023-03-20T12:10:02;101723.58;;;23.41;100.00
47983;BME280;33751;50.816;-1.214;2023-03-20T12:12:36;101722.52;;;23.66;100.00
47983;BME280;33751;50.816;-1.214;2023-03-20T12:15:13;101719.99;;;23.85;100.00
47983;BME280;33751;50.816;-1.214;2023-03-20T12:17:46;101716.71;;;23.87;100.00
47983;BME280;33751;50.816;-1.214;2023-03-20T12:20:37;101714.58;;;23.54;100.00
47983;BME280;33751;50.816;-1.214;2023-03-20T12:23:11;101713.22;;;23.59;100.00
47983;BME280;33751;50.816;-1.214;2023-03-20T12:25:44;101711.49;;;23.50;100.00
47983;BME280;33751;50.816;-1.214;2023-03-20T12:28:18;101708.85;;;23.99;100.00
47983;BME280;33751;50.816;-1.214;2023-03-20T12:30:55;101707.64;;;23.52;100.00
47983;BME280;33751;50.816;-1.214;2023-03-20T12:33:35;101706.14;;;23.46;100.00
47983;BME280;33751;50.816;-1.214;2023-03-20T12:36:04;101705.97;;;23.55;100.00
47983;BME280;33751;50.816;-1.214;2023-03-20T12:38:36;101708.15;;;23.43;100.00
47983;BME280;33751;50.816;-1.214;2023-03-20T12:41:10;101704.07;;;23.70;100.00
47983;BME280;33751;50.816;-1.214;2023-03-20T12:43:48;101701.65;;;23.47;100.00
47983;BME280;33751;50.816;-1.214;2023-03-20T12:46:27;101698.86;;;23.47;100.00